Time;durP1;ratioP1;P1;durP2;ratioP2;P2;SDS_P1;SDS_P2;PMS_P1;PMS_P2;Temp;Humidity;BMP_temperature;BMP_pressure;BME280_temperature;BME280_humidity;BME280_pressure;Samples;Min_cycle;Max_cycle;Signal;HPM_P1;HPM_P2
2023/07/18 00:00:59;;;;;;;18.42;16.70;;;;;;;;;;5070937;28;20034;-73
2023/07/18 00:03:25;;;;;;;18.17;16.48;;;;;;;;;;5071537;28;20047;-75
2023/07/18 00:05:51;;;;;;;17.98;16.38;;;;;;;;;;5072720;28;20096;-74
2023/07/18 00:08:16;;;;;;;18.27;16.40;;;;;;;;;;5077997;28;20044;-76
2023/07/18 00:10:42;;;;;;;17.73;16.13;;;;;;;;;;5079668;28;20070;-74
2023/07/18 00:13:08;;;;;;;17.27;15.73;;;;;;;;;;5080279;28;20024;-75
2023/07/18 00:15:33;;;;;;;17.90;16.33;;;;;;;;;;5081526;28;20123;-76
2023/07/18 00:18:02;;;;;;;16.45;14.80;;;;;;;;;;5071423;28;20035;-74
2023/07/18 00:20:27;;;;;;;18.02;16.33;;;;;;;;;;5070243;28;20036;-74
2023/07/18 00:22:53;;;;;;;17.25;15.63;;;;;;;;;;5077865;28;20065;-74
2023/07/18 00:25:19;;;;;;;18.73;16.95;;;;;;;;;;5074241;28;20358;-74
2023/07/18 00:27:47;;;;;;;19.95;17.33;;;;;;;;;;5078893;28;20615;-74
2023/07/18 00:30:12;;;;;;;18.85;16.95;;;;;;;;;;5073925;28;20070;-74
2023/07/18 00:32:38;;;;;;;18.80;17.10;;;;;;;;;;5078550;28;21150;-75
2023/07/18 00:35:04;;;;;;;17.85;16.35;;;;;;;;;;5073522;28;20104;-74
2023/07/18 00:37:29;;;;;;;18.85;17.15;;;;;;;;;;5081130;28;21058;-74
2023/07/18 00:39:54;;;;;;;19.50;17.77;;;;;;;;;;5075324;28;20094;-75
2023/07/18 00:42:20;;;;;;;18.70;17.00;;;;;;;;;;5076485;28;20077;-74
2023/07/18 00:44:48;;;;;;;19.08;17.42;;;;;;;;;;5081325;28;20857;-74
2023/07/18 00:47:14;;;;;;;19.25;17.40;;;;;;;;;;5081236;28;20024;-75
2023/07/18 00:49:39;;;;;;;20.65;18.85;;;;;;;;;;5071329;28;20030;-74
2023/07/18 00:52:06;;;;;;;19.80;18.00;;;;;;;;;;5078105;28;20024;-74
2023/07/18 00:54:32;;;;;;;20.10;18.13;;;;;;;;;;5071930;28;20450;-74
2023/07/18 00:56:57;;;;;;;19.92;18.17;;;;;;;;;;5073688;28;20051;-75
2023/07/18 00:59:24;;;;;;;18.48;16.83;;;;;;;;;;5080891;28;20071;-75
2023/07/18 01:01:49;;;;;;;19.35;17.60;;;;;;;;;;5079882;28;20028;-74
2023/07/18 01:04:14;;;;;;;18.75;16.95;;;;;;;;;;5079796;28;20535;-75
2023/07/18 01:06:40;;;;;;;20.65;18.75;;;;;;;;;;5078742;28;20028;-73
2023/07/18 01:09:06;;;;;;;19.33;17.52;;;;;;;;;;5073353;28;20044;-74
2023/07/18 01:11:32;;;;;;;18.00;16.45;;;;;;;;;;5079808;28;20339;-73
2023/07/18 01:13:58;;;;;;;19.88;17.90;;;;;;;;;;5079386;28;20054;-74
2023/07/18 01:16:23;;;;;;;20.50;18.33;;;;;;;;;;5077575;28;20424;-74
2023/07/18 01:18:49;;;;;;;19.75;18.05;;;;;;;;;;5073722;28;20031;-74
2023/07/18 01:21:17;;;;;;;19.25;17.48;;;;;;;;;;5069035;28;20024;-74
2023/07/18 01:23:45;;;;;;;19.17;17.30;;;;;;;;;;5074059;28;20035;-73
2023/07/18 01:26:11;;;;;;;18.80;17.00;;;;;;;;;;5077518;28;20477;-74
2023/07/18 01:28:36;;;;;;;18.70;16.95;;;;;;;;;;5077527;28;20073;-74
2023/07/18 01:31:02;;;;;;;18.73;16.98;;;;;;;;;;5080413;28;20435;-74
2023/07/18 01:33:28;;;;;;;18.80;16.88;;;;;;;;;;5071867;28;20027;-74
2023/07/18 01:35:53;;;;;;;19.40;17.77;;;;;;;;;;5073650;28;20125;-73
2023/07/18 01:38:18;;;;;;;18.35;16.52;;;;;;;;;;5074065;28;20028;-75
2023/07/18 01:40:44;;;;;;;18.33;16.65;;;;;;;;;;5080200;28;20387;-72
2023/07/18 01:43:09;;;;;;;18.20;16.70;;;;;;;;;;5075754;28;20020;-73
2023/07/18 01:45:35;;;;;;;18.98;17.17;;;;;;;;;;5074563;28;20036;-72
2023/07/18 01:48:02;;;;;;;16.70;15.23;;;;;;;;;;5078280;28;20435;-72
2023/07/18 01:50:27;;;;;;;18.42;16.73;;;;;;;;;;5079334;28;20158;-74
2023/07/18 01:52:53;;;;;;;18.77;17.05;;;;;;;;;;5071565;28;20098;-73
2023/07/18 01:55:19;;;;;;;18.85;16.65;;;;;;;;;;5076730;28;20130;-74
2023/07/18 01:57:46;;;;;;;19.05;17.20;;;;;;;;;;5077465;28;20067;-74
2023/07/18 02:00:12;;;;;;;18.20;16.52;;;;;;;;;;5067801;28;20528;-74
2023/07/18 02:02:37;;;;;;;18.55;16.77;;;;;;;;;;5078221;28;20120;-75
2023/07/18 02:05:04;;;;;;;19.67;17.80;;;;;;;;;;5078787;28;20024;-73
2023/07/18 02:07:29;;;;;;;18.95;17.35;;;;;;;;;;5079693;28;20435;-74
2023/07/18 02:09:55;;;;;;;20.58;18.60;;;;;;;;;;5076808;28;20035;-74
2023/07/18 02:12:20;;;;;;;21.13;18.95;;;;;;;;;;5069613;28;20036;-74
2023/07/18 02:14:46;;;;;;;20.98;18.88;;;;;;;;;;5079838;28;20074;-73
2023/07/18 02:17:11;;;;;;;19.27;17.58;;;;;;;;;;5069797;28;20039;-73
2023/07/18 02:19:36;;;;;;;20.10;18.42;;;;;;;;;;5078114;28;20075;-73
2023/07/18 02:22:02;;;;;;;19.90;18.08;;;;;;;;;;5079120;28;20643;-73
2023/07/18 02:24:28;;;;;;;18.83;17.10;;;;;;;;;;5078803;28;20028;-73
2023/07/18 02:26:54;;;;;;;20.67;18.77;;;;;;;;;;5076890;28;20320;-73
2023/07/18 02:29:19;;;;;;;17.83;16.13;;;;;;;;;;5070256;28;20105;-73
2023/07/18 02:31:45;;;;;;;20.35;18.27;;;;;;;;;;5073631;28;20020;-73
2023/07/18 02:34:11;;;;;;;20.08;18.13;;;;;;;;;;5074314;28;20416;-73
2023/07/18 02:36:36;;;;;;;19.65;17.85;;;;;;;;;;5078723;28;20078;-74
2023/07/18 02:39:03;;;;;;;25.73;18.15;;;;;;;;;;5078951;28;20988;-73
2023/07/18 02:41:29;;;;;;;20.10;18.40;;;;;;;;;;5076695;28;20350;-73
2023/07/18 02:43:54;;;;;;;21.20;19.20;;;;;;;;;;5079406;28;20020;-73
2023/07/18 02:46:19;;;;;;;21.63;19.40;;;;;;;;;;5072329;28;20028;-73
2023/07/18 02:48:45;;;;;;;21.02;19.17;;;;;;;;;;5066959;28;20030;-73
2023/07/18 02:51:10;;;;;;;19.25;17.50;;;;;;;;;;5067399;28;20028;-73
2023/07/18 02:53:36;;;;;;;19.30;17.60;;;;;;;;;;5067901;28;20107;-76
2023/07/18 02:56:01;;;;;;;19.40;17.55;;;;;;;;;;5067432;28;20467;-74
2023/07/18 02:58:27;;;;;;;19.10;17.40;;;;;;;;;;5067782;28;20019;-73
2023/07/18 03:00:52;;;;;;;21.88;19.35;;;;;;;;;;5068781;28;20042;-74
2023/07/18 03:03:17;;;;;;;20.88;19.02;;;;;;;;;;5074427;28;20123;-74
2023/07/18 03:05:43;;;;;;;19.00;17.23;;;;;;;;;;5073166;28;20032;-74
2023/07/18 03:08:08;;;;;;;19.00;16.98;;;;;;;;;;5071991;28;20055;-74
2023/07/18 03:10:34;;;;;;;20.15;18.33;;;;;;;;;;5072005;28;20400;-74
2023/07/18 03:13:00;;;;;;;20.15;18.15;;;;;;;;;;5069746;28;20024;-74
2023/07/18 03:15:25;;;;;;;20.52;18.65;;;;;;;;;;5065885;28;20043;-74
2023/07/18 03:17:51;;;;;;;20.92;18.92;;;;;;;;;;5067422;28;20098;-74
2023/07/18 03:20:17;;;;;;;21.38;19.38;;;;;;;;;;5064065;28;20023;-74
2023/07/18 03:22:46;;;;;;;21.08;19.08;;;;;;;;;;5066856;28;20119;-75
2023/07/18 03:25:11;;;;;;;20.75;18.80;;;;;;;;;;5065849;28;20155;-75
2023/07/18 03:27:36;;;;;;;21.90;19.90;;;;;;;;;;5082550;28;20119;-74
2023/07/18 03:30:02;;;;;;;21.40;19.20;;;;;;;;;;5066696;28;20024;-74
2023/07/18 03:32:28;;;;;;;21.42;19.10;;;;;;;;;;5065029;28;20105;-75
2023/07/18 03:34:53;;;;;;;24.48;18.90;;;;;;;;;;5067149;28;20024;-75
2023/07/18 03:37:19;;;;;;;21.50;19.42;;;;;;;;;;5066571;28;20459;-73
2023/07/18 03:39:44;;;;;;;21.38;19.20;;;;;;;;;;5067328;28;20357;-74
2023/07/18 03:42:09;;;;;;;22.27;18.67;;;;;;;;;;5068632;28;20024;-73
2023/07/18 03:44:35;;;;;;;20.92;18.90;;;;;;;;;;5078760;28;20032;-73
2023/07/18 03:47:00;;;;;;;20.65;18.60;;;;;;;;;;5082416;28;21244;-73
2023/07/18 03:49:26;;;;;;;21.63;19.65;;;;;;;;;;5082500;28;20032;-73
2023/07/18 03:51:51;;;;;;;20.48;18.45;;;;;;;;;;5080843;28;20431;-74
2023/07/18 03:54:16;;;;;;;19.20;17.50;;;;;;;;;;5073239;28;20159;-74
2023/07/18 03:56:42;;;;;;;17.67;16.13;;;;;;;;;;5082501;28;20145;-74
2023/07/18 03:59:08;;;;;;;19.90;17.88;;;;;;;;;;5081323;28;20035;-74
2023/07/18 04:01:33;;;;;;;18.98;16.95;;;;;;;;;;5076938;28;20169;-73
2023/07/18 04:03:58;;;;;;;18.80;17.17;;;;;;;;;;5070433;28;20081;-73
2023/07/18 04:06:24;;;;;;;22.52;18.58;;;;;;;;;;5069496;28;20031;-73
2023/07/18 04:08:49;;;;;;;19.80;17.75;;;;;;;;;;5069936;28;20047;-74
2023/07/18 04:11:14;;;;;;;20.02;18.02;;;;;;;;;;5068768;28;20059;-74
2023/07/18 04:13:40;;;;;;;19.35;17.45;;;;;;;;;;5070412;28;20126;-73
2023/07/18 04:16:05;;;;;;;19.58;17.70;;;;;;;;;;5077906;28;20458;-74
2023/07/18 04:18:31;;;;;;;19.35;17.40;;;;;;;;;;5076514;28;20024;-74
2023/07/18 04:21:00;;;;;;;19.55;17.77;;;;;;;;;;5069309;28;20028;-75
2023/07/18 04:23:25;;;;;;;19.67;17.63;;;;;;;;;;5069899;28;20031;-73
2023/07/18 04:25:55;;;;;;;20.02;18.27;;;;;;;;;;5070351;28;20096;-73
2023/07/18 04:28:21;;;;;;;20.67;18.95;;;;;;;;;;5069099;28;20032;-74
2023/07/18 04:30:46;;;;;;;20.60;18.65;;;;;;;;;;5069456;28;20090;-74
2023/07/18 04:33:12;;;;;;;20.35;18.45;;;;;;;;;;5069681;28;20503;-73
2023/07/18 04:35:39;;;;;;;19.75;17.92;;;;;;;;;;5067749;28;20036;-72
2023/07/18 04:38:05;;;;;;;18.77;16.83;;;;;;;;;;5069576;28;20031;-72
2023/07/18 04:40:30;;;;;;;17.75;16.25;;;;;;;;;;5071345;28;20328;-74
2023/07/18 04:42:55;;;;;;;19.10;17.25;;;;;;;;;;5076225;28;20024;-74
2023/07/18 04:45:21;;;;;;;19.40;17.55;;;;;;;;;;5070047;28;20040;-73
2023/07/18 04:47:46;;;;;;;19.25;17.55;;;;;;;;;;5081112;28;20620;-75
2023/07/18 04:50:11;;;;;;;18.77;17.02;;;;;;;;;;5079649;28;20077;-74
2023/07/18 04:52:37;;;;;;;19.00;17.25;;;;;;;;;;5078760;28;20036;-74
2023/07/18 04:55:02;;;;;;;20.00;18.15;;;;;;;;;;5079508;28;20735;-73
2023/07/18 04:57:28;;;;;;;20.17;18.27;;;;;;;;;;5070797;28;20059;-74
2023/07/18 04:59:53;;;;;;;19.40;17.55;;;;;;;;;;5070276;28;20031;-74
2023/07/18 05:02:19;;;;;;;18.75;16.92;;;;;;;;;;5069550;28;20028;-75
2023/07/18 05:04:44;;;;;;;18.98;17.27;;;;;;;;;;5076505;28;20963;-74
2023/07/18 05:07:10;;;;;;;18.92;17.33;;;;;;;;;;5081292;28;20031;-74
2023/07/18 05:09:35;;;;;;;17.90;16.30;;;;;;;;;;5078271;28;20021;-73
2023/07/18 05:12:00;;;;;;;18.40;16.55;;;;;;;;;;5078241;28;20517;-72
2023/07/18 05:14:26;;;;;;;19.42;16.92;;;;;;;;;;5073920;28;20020;-74
2023/07/18 05:16:51;;;;;;;19.65;17.83;;;;;;;;;;5075408;28;20320;-72
2023/07/18 05:19:17;;;;;;;17.98;16.27;;;;;;;;;;5078506;28;20452;-74
2023/07/18 05:21:42;;;;;;;17.52;15.85;;;;;;;;;;5071182;28;20089;-74
2023/07/18 05:24:08;;;;;;;16.35;14.95;;;;;;;;;;5079534;28;20023;-73
2023/07/18 05:26:33;;;;;;;17.58;16.05;;;;;;;;;;5079841;28;20035;-75
2023/07/18 05:28:58;;;;;;;17.67;16.08;;;;;;;;;;5080343;28;20024;-73
2023/07/18 05:31:24;;;;;;;17.20;15.57;;;;;;;;;;5078906;28;20024;-72
2023/07/18 05:33:50;;;;;;;17.95;15.82;;;;;;;;;;5073383;28;20024;-73
2023/07/18 05:36:16;;;;;;;16.98;15.25;;;;;;;;;;5074306;28;20485;-73
2023/07/18 05:38:41;;;;;;;16.05;14.60;;;;;;;;;;5067879;28;20035;-73
2023/07/18 05:41:07;;;;;;;16.33;14.90;;;;;;;;;;5067463;28;20020;-72
2023/07/18 05:43:32;;;;;;;16.27;14.70;;;;;;;;;;5067305;28;20028;-73
2023/07/18 05:45:57;;;;;;;15.32;13.95;;;;;;;;;;5069407;28;20433;-73
2023/07/18 05:48:23;;;;;;;17.27;14.40;;;;;;;;;;5076771;28;20454;-72
2023/07/18 05:50:48;;;;;;;16.50;14.88;;;;;;;;;;5070344;28;20092;-75
2023/07/18 05:53:13;;;;;;;16.20;14.75;;;;;;;;;;5069472;28;20020;-73
2023/07/18 05:55:39;;;;;;;16.20;14.73;;;;;;;;;;5078441;28;20036;-72
2023/07/18 05:58:04;;;;;;;16.70;15.20;;;;;;;;;;5077490;28;20402;-73
2023/07/18 06:00:30;;;;;;;16.35;14.85;;;;;;;;;;5079027;28;20024;-72
2023/07/18 06:02:55;;;;;;;16.23;14.60;;;;;;;;;;5078652;28;20496;-72
2023/07/18 06:05:21;;;;;;;16.00;14.45;;;;;;;;;;5078974;28;20024;-73
2023/07/18 06:07:46;;;;;;;21.33;14.80;;;;;;;;;;5072842;28;20083;-73
2023/07/18 06:10:11;;;;;;;16.15;14.55;;;;;;;;;;5073843;28;20371;-73
2023/07/18 06:12:37;;;;;;;16.02;14.35;;;;;;;;;;5076122;28;20094;-71
2023/07/18 06:15:03;;;;;;;15.70;14.30;;;;;;;;;;5076273;28;20020;-75
2023/07/18 06:17:28;;;;;;;15.73;14.02;;;;;;;;;;5065206;28;20068;-71
2023/07/18 06:19:54;;;;;;;16.90;15.13;;;;;;;;;;5066748;28;20519;-70
2023/07/18 06:22:19;;;;;;;16.80;15.15;;;;;;;;;;5067531;28;20031;-70
2023/07/18 06:24:46;;;;;;;16.40;14.88;;;;;;;;;;5067195;28;20039;-70
2023/07/18 06:27:12;;;;;;;16.65;15.05;;;;;;;;;;5067445;28;20111;-71
2023/07/18 06:29:37;;;;;;;16.10;14.43;;;;;;;;;;5068722;28;20099;-70
2023/07/18 06:32:05;;;;;;;16.17;14.50;;;;;;;;;;5067944;28;20042;-70
2023/07/18 06:34:30;;;;;;;16.38;14.77;;;;;;;;;;5066673;28;20028;-76
2023/07/18 06:36:59;;;;;;;17.48;15.82;;;;;;;;;;5070650;28;20036;-71
2023/07/18 06:39:26;;;;;;;19.40;16.23;;;;;;;;;;5071554;28;20088;-71
2023/07/18 06:41:51;;;;;;;17.27;15.52;;;;;;;;;;5076869;28;20081;-74
2023/07/18 06:44:16;;;;;;;16.20;14.82;;;;;;;;;;5077879;28;20036;-71
2023/07/18 06:46:42;;;;;;;16.58;15.18;;;;;;;;;;5078608;28;20787;-72
2023/07/18 06:49:07;;;;;;;15.82;14.43;;;;;;;;;;5077944;28;20813;-73
2023/07/18 06:51:33;;;;;;;16.27;14.80;;;;;;;;;;5078383;28;20035;-71
2023/07/18 06:53:58;;;;;;;18.13;15.07;;;;;;;;;;5078609;28;20016;-70
2023/07/18 06:56:23;;;;;;;17.00;15.35;;;;;;;;;;5067412;28;20619;-72
2023/07/18 06:58:49;;;;;;;17.23;15.52;;;;;;;;;;5076590;28;20012;-71
2023/07/18 07:01:14;;;;;;;16.98;15.48;;;;;;;;;;5078344;28;20028;-71
2023/07/18 07:03:39;;;;;;;17.63;15.80;;;;;;;;;;5070111;28;20058;-70
2023/07/18 07:06:09;;;;;;;18.58;16.88;;;;;;;;;;5071699;28;20032;-70
2023/07/18 07:08:34;;;;;;;17.67;16.02;;;;;;;;;;5077259;28;20443;-69
2023/07/18 07:11:04;;;;;;;18.58;15.75;;;;;;;;;;5073286;28;20024;-73
2023/07/18 07:13:29;;;;;;;16.90;15.32;;;;;;;;;;5073117;28;20031;-71
2023/07/18 07:15:55;;;;;;;18.30;16.60;;;;;;;;;;5077446;28;20036;-71
2023/07/18 07:18:20;;;;;;;18.58;16.77;;;;;;;;;;5076545;28;20036;-72
2023/07/18 07:20:46;;;;;;;17.98;16.27;;;;;;;;;;5072197;28;20469;-71
2023/07/18 07:23:11;;;;;;;17.15;15.52;;;;;;;;;;5070718;28;20032;-72
2023/07/18 07:25:36;;;;;;;16.83;15.10;;;;;;;;;;5070469;28;20540;-73
2023/07/18 07:28:02;;;;;;;16.45;14.27;;;;;;;;;;5070412;28;20066;-70
2023/07/18 07:30:27;;;;;;;17.77;15.13;;;;;;;;;;5082600;28;20028;-73
2023/07/18 07:32:52;;;;;;;15.73;14.02;;;;;;;;;;5078217;28;20016;-72
2023/07/18 07:35:19;;;;;;;15.23;13.70;;;;;;;;;;5074330;28;20051;-71
2023/07/18 07:37:46;;;;;;;14.43;13.02;;;;;;;;;;5082604;28;20189;-71
2023/07/18 07:40:12;;;;;;;15.30;14.00;;;;;;;;;;5081503;28;20023;-73
2023/07/18 07:42:38;;;;;;;21.13;15.23;;;;;;;;;;5078952;28;20099;-74
2023/07/18 07:45:04;;;;;;;15.55;12.85;;;;;;;;;;5071964;28;20032;-74
2023/07/18 07:47:29;;;;;;;14.40;13.05;;;;;;;;;;5082265;28;20038;-71
2023/07/18 07:49:55;;;;;;;14.60;13.20;;;;;;;;;;5082218;28;20107;-71
2023/07/18 07:52:20;;;;;;;14.60;13.07;;;;;;;;;;5081368;28;20055;-73
2023/07/18 07:54:48;;;;;;;14.45;12.38;;;;;;;;;;5082943;28;20100;-72
2023/07/18 07:57:13;;;;;;;12.02;10.93;;;;;;;;;;5081039;28;20173;-72
2023/07/18 07:59:39;;;;;;;11.85;10.68;;;;;;;;;;5078075;28;20127;-71
2023/07/18 08:02:05;;;;;;;11.20;9.90;;;;;;;;;;5074425;28;20034;-72
2023/07/18 08:04:30;;;;;;;11.68;10.43;;;;;;;;;;5080209;28;20439;-71
2023/07/18 08:06:55;;;;;;;12.77;10.95;;;;;;;;;;5080493;28;20043;-71
2023/07/18 08:09:22;;;;;;;11.43;10.43;;;;;;;;;;5080435;28;20063;-74
2023/07/18 08:11:48;;;;;;;10.25;9.30;;;;;;;;;;5081148;28;20055;-73
2023/07/18 08:14:13;;;;;;;10.18;9.32;;;;;;;;;;5079661;28;20028;-71
2023/07/18 08:16:39;;;;;;;9.57;8.75;;;;;;;;;;5071549;28;20092;-72
2023/07/18 08:19:04;;;;;;;9.93;8.93;;;;;;;;;;5077956;28;20100;-73
2023/07/18 08:21:29;;;;;;;14.80;8.18;;;;;;;;;;5069696;28;20442;-72
2023/07/18 08:23:55;;;;;;;10.13;8.52;;;;;;;;;;5078185;28;20024;-71
2023/07/18 08:26:20;;;;;;;9.30;8.45;;;;;;;;;;5081004;28;20080;-72
2023/07/18 08:28:45;;;;;;;8.75;7.93;;;;;;;;;;5072257;28;20062;-74
2023/07/18 08:31:11;;;;;;;8.68;7.82;;;;;;;;;;5076794;28;20031;-76
2023/07/18 08:33:36;;;;;;;8.35;7.57;;;;;;;;;;5069108;28;21048;-75
2023/07/18 08:36:01;;;;;;;8.73;7.93;;;;;;;;;;5072525;28;20031;-74
2023/07/18 08:38:27;;;;;;;9.32;8.20;;;;;;;;;;5069087;28;20123;-73
2023/07/18 08:40:52;;;;;;;8.50;7.63;;;;;;;;;;5070951;28;20024;-72
2023/07/18 08:43:18;;;;;;;9.98;7.78;;;;;;;;;;5068910;28;20039;-73
2023/07/18 08:45:44;;;;;;;7.90;7.10;;;;;;;;;;5084705;28;20023;-73
2023/07/18 08:48:09;;;;;;;10.77;6.20;;;;;;;;;;5065675;28;20035;-73
2023/07/18 08:50:35;;;;;;;7.47;5.95;;;;;;;;;;5069358;28;20028;-72
2023/07/18 08:53:05;;;;;;;7.05;6.35;;;;;;;;;;5067675;28;21025;-73
2023/07/18 08:55:30;;;;;;;7.22;6.40;;;;;;;;;;5075932;28;20161;-74
2023/07/18 08:57:56;;;;;;;5.00;4.50;;;;;;;;;;5078206;28;20115;-73
2023/07/18 09:00:21;;;;;;;5.50;4.88;;;;;;;;;;5082124;28;20119;-72
2023/07/18 09:02:48;;;;;;;4.57;4.15;;;;;;;;;;5080154;28;20041;-72
2023/07/18 09:05:29;;;;;;;4.55;4.00;;;;;;;;;;5073399;28;20016;-70
2023/07/18 09:07:55;;;;;;;4.47;4.03;;;;;;;;;;5079590;28;20051;-73
2023/07/18 09:10:21;;;;;;;6.95;4.20;;;;;;;;;;5080546;28;20137;-70
2023/07/18 09:12:46;;;;;;;4.10;3.80;;;;;;;;;;5080899;28;20141;-72
2023/07/18 09:15:17;;;;;;;7.28;4.25;;;;;;;;;;5070271;28;20039;-72
2023/07/18 09:17:47;;;;;;;6.88;5.10;;;;;;;;;;5076553;28;20044;-75
2023/07/18 09:20:16;;;;;;;7.47;4.72;;;;;;;;;;5072378;28;20032;-74
2023/07/18 09:22:41;;;;;;;4.53;3.90;;;;;;;;;;5068232;28;20445;-75
2023/07/18 09:25:07;;;;;;;4.85;4.00;;;;;;;;;;5067728;28;20114;-75
2023/07/18 09:27:35;;;;;;;4.57;4.18;;;;;;;;;;5087447;28;20362;-74
2023/07/18 09:30:00;;;;;;;5.88;4.63;;;;;;;;;;5068774;28;20104;-74
2023/07/18 09:32:26;;;;;;;5.65;4.47;;;;;;;;;;5068611;28;20763;-75
2023/07/18 09:34:52;;;;;;;5.70;3.90;;;;;;;;;;5067797;28;20036;-76
2023/07/18 09:37:18;;;;;;;5.60;4.45;;;;;;;;;;5068270;28;20067;-74
2023/07/18 09:39:43;;;;;;;12.32;4.40;;;;;;;;;;5067217;28;20485;-76
2023/07/18 09:42:10;;;;;;;9.95;4.43;;;;;;;;;;5066500;28;20073;-75
2023/07/18 09:44:36;;;;;;;8.05;3.75;;;;;;;;;;5067665;28;20404;-76
2023/07/18 09:47:01;;;;;;;4.05;3.65;;;;;;;;;;5067462;28;21271;-75
2023/07/18 09:49:28;;;;;;;4.38;3.60;;;;;;;;;;5066890;28;20075;-73
2023/07/18 09:52:03;;;;;;;4.30;3.92;;;;;;;;;;5067568;28;20028;-74
2023/07/18 09:54:30;;;;;;;5.03;3.13;;;;;;;;;;5083512;28;20409;-75
2023/07/18 09:56:57;;;;;;;5.05;3.90;;;;;;;;;;5066757;28;20028;-73
2023/07/18 09:59:23;;;;;;;5.47;3.85;;;;;;;;;;5066910;28;20270;-74
2023/07/18 10:01:51;;;;;;;11.60;4.05;;;;;;;;;;5065371;28;20032;-75
2023/07/18 10:04:18;;;;;;;4.03;3.70;;;;;;;;;;5067615;28;20027;-73
2023/07/18 10:06:44;;;;;;;4.20;3.78;;;;;;;;;;5067594;28;21110;-75
2023/07/18 10:09:09;;;;;;;6.78;3.72;;;;;;;;;;5069466;28;21390;-78
2023/07/18 10:11:53;;;;;;;5.70;4.10;;;;;;;;;;5065610;28;20085;-73
2023/07/18 10:14:18;;;;;;;5.70;3.85;;;;;;;;;;5070129;28;20063;-73
2023/07/18 10:16:52;;;;;;;8.93;4.00;;;;;;;;;;5075915;28;20094;-72
2023/07/18 10:19:18;;;;;;;7.28;3.60;;;;;;;;;;5067230;28;20402;-75
2023/07/18 10:21:45;;;;;;;5.82;3.65;;;;;;;;;;5068098;28;20031;-72
2023/07/18 10:24:20;;;;;;;5.35;3.97;;;;;;;;;;5068461;28;20116;-75
2023/07/18 10:26:48;;;;;;;5.00;3.65;;;;;;;;;;5066958;28;20540;-73
2023/07/18 10:29:13;;;;;;;;;;;;;;;;;;5066381;28;20024;-72
2023/07/18 10:31:38;;;;;;;4.37;3.57;;;;;;;;;;5063324;28;20162;-76
2023/07/18 10:34:09;;;;;;;4.18;3.55;;;;;;;;;;5065370;28;20024;-75
2023/07/18 10:36:35;;;;;;;4.97;3.70;;;;;;;;;;5065103;28;20035;-76
2023/07/18 10:39:05;;;;;;;4.25;3.85;;;;;;;;;;5066348;28;20038;-75
2023/07/18 10:41:30;;;;;;;6.00;3.80;;;;;;;;;;5066561;28;20547;-75
2023/07/18 10:43:56;;;;;;;5.22;3.38;;;;;;;;;;5079177;28;20024;-75
2023/07/18 10:46:23;;;;;;;5.28;3.97;;;;;;;;;;5077818;28;20332;-73
2023/07/18 10:48:49;;;;;;;4.13;3.65;;;;;;;;;;5078466;28;20103;-76
2023/07/18 10:51:15;;;;;;;4.05;3.65;;;;;;;;;;5073198;28;20020;-72
2023/07/18 10:53:42;;;;;;;4.60;3.55;;;;;;;;;;5074725;28;20078;-77
2023/07/18 10:56:18;;;;;;;5.15;3.80;;;;;;;;;;5081021;28;20046;-72
2023/07/18 10:58:44;;;;;;;7.93;3.60;;;;;;;;;;5081925;28;20035;-72
2023/07/18 11:01:09;;;;;;;3.90;3.50;;;;;;;;;;5083189;28;20016;-73
2023/07/18 11:03:35;;;;;;;5.57;3.90;;;;;;;;;;5080525;28;20032;-74
2023/07/18 11:06:04;;;;;;;4.55;3.70;;;;;;;;;;5079647;28;20024;-75
2023/07/18 11:08:31;;;;;;;3.80;3.50;;;;;;;;;;5071312;28;20044;-74
2023/07/18 11:10:57;;;;;;;4.30;3.90;;;;;;;;;;5075974;28;20028;-74
2023/07/18 11:13:33;;;;;;;4.07;3.67;;;;;;;;;;5072121;28;20028;-75
2023/07/18 11:16:04;;;;;;;5.35;3.63;;;;;;;;;;5096780;28;20039;-75
2023/07/18 11:18:34;;;;;;;4.43;3.70;;;;;;;;;;5082964;28;20098;-76
2023/07/18 11:21:03;;;;;;;4.38;3.45;;;;;;;;;;5079944;28;20016;-74
2023/07/18 11:23:29;;;;;;;7.88;4.05;;;;;;;;;;5075963;28;20443;-74
2023/07/18 11:25:55;;;;;;;4.00;3.67;;;;;;;;;;5072721;28;20466;-74
2023/07/18 11:28:20;;;;;;;4.13;3.72;;;;;;;;;;5068947;28;20031;-74
2023/07/18 11:30:45;;;;;;;4.70;3.90;;;;;;;;;;5069950;28;20894;-76
2023/07/18 11:33:12;;;;;;;5.10;3.95;;;;;;;;;;5075426;28;20165;-76
2023/07/18 11:35:37;;;;;;;4.70;3.80;;;;;;;;;;5083415;28;21117;-74
2023/07/18 11:38:03;;;;;;;4.97;3.45;;;;;;;;;;5077428;28;20132;-78
2023/07/18 11:40:31;;;;;;;5.15;3.70;;;;;;;;;;5070464;28;20489;-76
2023/07/18 11:43:00;;;;;;;6.10;3.63;;;;;;;;;;5069562;28;20024;-75
2023/07/18 11:45:27;;;;;;;7.30;3.83;;;;;;;;;;5071062;28;20030;-74
2023/07/18 11:47:53;;;;;;;5.55;3.85;;;;;;;;;;5076634;28;20520;-75
2023/07/18 11:50:19;;;;;;;4.35;3.95;;;;;;;;;;5084614;28;20104;-77
2023/07/18 11:52:46;;;;;;;4.63;3.55;;;;;;;;;;5081585;28;20073;-75
2023/07/18 11:55:11;;;;;;;6.13;3.90;;;;;;;;;;5074332;28;20404;-75
2023/07/18 11:57:36;;;;;;;8.45;4.15;;;;;;;;;;5080562;28;20165;-77
2023/07/18 12:00:03;;;;;;;6.32;3.60;;;;;;;;;;5070425;28;20027;-76
2023/07/18 12:02:28;;;;;;;4.20;3.80;;;;;;;;;;5069990;28;20279;-76
2023/07/18 12:04:55;;;;;;;7.22;3.85;;;;;;;;;;5071887;28;20032;-74
2023/07/18 12:07:20;;;;;;;6.38;4.18;;;;;;;;;;5081223;28;20028;-76
2023/07/18 12:09:45;;;;;;;6.28;4.05;;;;;;;;;;5072216;28;20029;-76
2023/07/18 12:12:11;;;;;;;6.10;3.70;;;;;;;;;;5069957;28;20020;-77
2023/07/18 12:14:36;;;;;;;4.88;3.90;;;;;;;;;;5070173;28;20028;-75
2023/07/18 12:17:01;;;;;;;4.90;3.83;;;;;;;;;;5077165;28;20044;-78
2023/07/18 12:19:27;;;;;;;7.55;4.20;;;;;;;;;;5083250;28;20305;-75
2023/07/18 12:21:52;;;;;;;6.63;4.28;;;;;;;;;;5082138;28;20024;-75
2023/07/18 12:24:18;;;;;;;5.53;4.20;;;;;;;;;;5078492;28;20056;-73
2023/07/18 12:26:45;;;;;;;7.35;3.85;;;;;;;;;;5072572;28;20454;-75
2023/07/18 12:29:15;;;;;;;7.15;4.60;;;;;;;;;;5083867;28;20050;-75
2023/07/18 12:31:42;;;;;;;4.35;3.95;;;;;;;;;;5082432;28;20066;-75
2023/07/18 12:34:08;;;;;;;6.63;4.25;;;;;;;;;;5073894;28;20111;-75
2023/07/18 12:36:33;;;;;;;4.70;3.90;;;;;;;;;;5078736;28;20126;-75
2023/07/18 12:38:58;;;;;;;4.90;3.85;;;;;;;;;;5070206;28;20074;-75
2023/07/18 12:41:24;;;;;;;4.50;4.10;;;;;;;;;;5070408;28;20031;-74
2023/07/18 12:43:49;;;;;;;5.47;4.20;;;;;;;;;;5074443;28;20031;-76
2023/07/18 12:46:15;;;;;;;6.38;3.47;;;;;;;;;;5069679;28;20039;-74
2023/07/18 12:48:40;;;;;;;4.28;3.75;;;;;;;;;;5069700;28;20020;-75
2023/07/18 12:51:06;;;;;;;4.65;3.72;;;;;;;;;;5069332;28;20054;-75
2023/07/18 12:53:32;;;;;;;5.30;4.30;;;;;;;;;;5069545;28;20050;-74
2023/07/18 12:55:57;;;;;;;5.15;3.78;;;;;;;;;;5074108;28;20036;-76
2023/07/18 12:58:23;;;;;;;6.03;4.20;;;;;;;;;;5067403;28;20537;-76
2023/07/18 13:00:48;;;;;;;4.40;3.80;;;;;;;;;;5069603;28;20285;-74
2023/07/18 13:03:13;;;;;;;4.20;3.88;;;;;;;;;;5069971;28;20331;-75
2023/07/18 13:05:39;;;;;;;6.18;4.25;;;;;;;;;;5074363;28;20028;-75
2023/07/18 13:08:05;;;;;;;7.75;4.13;;;;;;;;;;5079990;28;20427;-74
2023/07/18 13:10:30;;;;;;;4.70;3.75;;;;;;;;;;5079930;28;20096;-74
2023/07/18 13:12:55;;;;;;;5.80;3.97;;;;;;;;;;5078276;28;20039;-76
2023/07/18 13:15:21;;;;;;;4.30;3.90;;;;;;;;;;5069597;28;20028;-77
2023/07/18 13:17:46;;;;;;;4.38;3.97;;;;;;;;;;5067821;28;20055;-76
2023/07/18 13:20:12;;;;;;;4.53;3.65;;;;;;;;;;5068825;28;20020;-75
2023/07/18 13:22:37;;;;;;;6.97;3.65;;;;;;;;;;5066990;28;20019;-75
2023/07/18 13:25:03;;;;;;;6.88;3.95;;;;;;;;;;5073788;28;20081;-79
2023/07/18 13:27:29;;;;;;;3.83;3.10;;;;;;;;;;5068335;28;20027;-76
2023/07/18 13:29:54;;;;;;;3.85;3.47;;;;;;;;;;5068238;28;20427;-76
2023/07/18 13:32:20;;;;;;;2.95;2.72;;;;;;;;;;5069255;28;20032;-76
2023/07/18 13:34:45;;;;;;;3.60;3.30;;;;;;;;;;5068423;28;20039;-76
2023/07/18 13:37:10;;;;;;;4.00;3.60;;;;;;;;;;5066904;28;20059;-74
2023/07/18 13:39:36;;;;;;;5.70;3.55;;;;;;;;;;5068542;28;20024;-76
2023/07/18 13:42:01;;;;;;;4.63;3.33;;;;;;;;;;5068272;28;20359;-75
2023/07/18 13:44:27;;;;;;;4.72;3.22;;;;;;;;;;5068087;28;20054;-75
2023/07/18 13:46:52;;;;;;;3.83;3.53;;;;;;;;;;5068901;28;20450;-74
2023/07/18 13:49:19;;;;;;;4.03;3.63;;;;;;;;;;5068833;28;20421;-75
2023/07/18 13:51:45;;;;;;;3.90;3.50;;;;;;;;;;5068567;28;20040;-76
2023/07/18 13:54:10;;;;;;;5.45;3.47;;;;;;;;;;5068648;28;20511;-76
2023/07/18 13:56:35;;;;;;;4.38;3.60;;;;;;;;;;5079928;28;20124;-76
2023/07/18 13:59:01;;;;;;;3.33;3.03;;;;;;;;;;5066538;28;20362;-76
2023/07/18 14:01:26;;;;;;;3.72;3.42;;;;;;;;;;5066660;28;20074;-76
2023/07/18 14:03:51;;;;;;;3.40;3.13;;;;;;;;;;5067982;28;20028;-75
2023/07/18 14:06:17;;;;;;;3.95;3.60;;;;;;;;;;5067715;28;20135;-74
2023/07/18 14:08:42;;;;;;;3.45;3.15;;;;;;;;;;5067508;28;20379;-77
2023/07/18 14:11:08;;;;;;;3.63;3.33;;;;;;;;;;5068200;28;20032;-76
2023/07/18 14:13:34;;;;;;;4.13;3.35;;;;;;;;;;5072846;28;20453;-75
2023/07/18 14:15:59;;;;;;;3.80;3.40;;;;;;;;;;5073147;28;20036;-78
2023/07/18 14:18:24;;;;;;;3.13;2.83;;;;;;;;;;5068388;28;20114;-76
2023/07/18 14:20:50;;;;;;;5.80;3.90;;;;;;;;;;5068165;28;20020;-77